sensor_id;sensor_type;location;lat;lon;timestamp;temperature;humidity
21744;DHT22;11034;48.556;9.342;2024-01-07T00:00:04;3.20;99.90
21744;DHT22;11034;48.556;9.342;2024-01-07T00:02:32;3.30;99.90
21744;DHT22;11034;48.556;9.342;2024-01-07T00:05:02;3.30;99.90
21744;DHT22;11034;48.556;9.342;2024-01-07T00:07:30;3.30;99.90
21744;DHT22;11034;48.556;9.342;2024-01-07T00:09:58;3.30;99.90
21744;DHT22;11034;48.556;9.342;2024-01-07T00:12:26;3.30;99.90
21744;DHT22;11034;48.556;9.342;2024-01-07T00:14:54;3.30;99.90
21744;DHT22;11034;48.556;9.342;2024-01-07T00:17:23;3.30;99.90
21744;DHT22;11034;48.556;9.342;2024-01-07T00:19:51;3.30;99.90
21744;DHT22;11034;48.556;9.342;2024-01-07T00:22:21;3.30;99.90
21744;DHT22;11034;48.556;9.342;2024-01-07T00:24:49;3.20;99.90
21744;DHT22;11034;48.556;9.342;2024-01-07T00:27:17;3.20;99.90
21744;DHT22;11034;48.556;9.342;2024-01-07T00:29:45;3.20;99.90
21744;DHT22;11034;48.556;9.342;2024-01-07T00:32:13;3.20;99.90
21744;DHT22;11034;48.556;9.342;2024-01-07T00:34:41;3.30;99.90
21744;DHT22;11034;48.556;9.342;2024-01-07T00:37:09;3.30;99.90
21744;DHT22;11034;48.556;9.342;2024-01-07T00:39:38;3.30;99.90
21744;DHT22;11034;48.556;9.342;2024-01-07T00:42:09;3.40;99.90
21744;DHT22;11034;48.556;9.342;2024-01-07T00:44:37;3.30;99.90
21744;DHT22;11034;48.556;9.342;2024-01-07T00:47:05;3.20;99.90
21744;DHT22;11034;48.556;9.342;2024-01-07T00:49:33;3.30;99.90
21744;DHT22;11034;48.556;9.342;2024-01-07T00:52:01;3.30;99.90
21744;DHT22;11034;48.556;9.342;2024-01-07T00:54:29;3.20;99.90
21744;DHT22;11034;48.556;9.342;2024-01-07T00:56:59;3.20;99.90
21744;DHT22;11034;48.556;9.342;2024-01-07T00:59:28;3.20;99.90
21744;DHT22;11034;48.556;9.342;2024-01-07T01:01:56;3.30;99.90
21744;DHT22;11034;48.556;9.342;2024-01-07T01:04:24;3.30;99.90
21744;DHT22;11034;48.556;9.342;2024-01-07T01:06:52;3.30;99.90
21744;DHT22;11034;48.556;9.342;2024-01-07T01:09:20;3.20;99.90
21744;DHT22;11034;48.556;9.342;2024-01-07T01:11:48;3.20;99.90
21744;DHT22;11034;48.556;9.342;2024-01-07T01:14:18;3.30;99.90
21744;DHT22;11034;48.556;9.342;2024-01-07T01:16:46;3.30;99.90
21744;DHT22;11034;48.556;9.342;2024-01-07T01:19:14;3.30;99.90
21744;DHT22;11034;48.556;9.342;2024-01-07T01:21:42;3.20;99.90
21744;DHT22;11034;48.556;9.342;2024-01-07T01:24:10;3.20;99.90
21744;DHT22;11034;48.556;9.342;2024-01-07T01:29:08;3.30;99.90
21744;DHT22;11034;48.556;9.342;2024-01-07T01:31:38;3.20;99.90
21744;DHT22;11034;48.556;9.342;2024-01-07T01:34:06;3.30;99.90
21744;DHT22;11034;48.556;9.342;2024-01-07T01:36:34;3.30;99.90
21744;DHT22;11034;48.556;9.342;2024-01-07T01:39:02;3.20;99.90
21744;DHT22;11034;48.556;9.342;2024-01-07T01:41:30;3.20;99.90
21744;DHT22;11034;48.556;9.342;2024-01-07T01:43:58;3.30;99.90
21744;DHT22;11034;48.556;9.342;2024-01-07T01:46:28;3.30;99.90
21744;DHT22;11034;48.556;9.342;2024-01-07T01:48:59;3.30;99.90
21744;DHT22;11034;48.556;9.342;2024-01-07T01:51:27;3.30;99.90
21744;DHT22;11034;48.556;9.342;2024-01-07T01:53:55;3.30;99.90
21744;DHT22;11034;48.556;9.342;2024-01-07T01:56:26;3.30;99.90
21744;DHT22;11034;48.556;9.342;2024-01-07T01:58:55;3.30;99.90
21744;DHT22;11034;48.556;9.342;2024-01-07T02:01:23;3.20;99.90
21744;DHT22;11034;48.556;9.342;2024-01-07T02:03:51;3.20;99.90
21744;DHT22;11034;48.556;9.342;2024-01-07T02:06:22;3.20;99.90
21744;DHT22;11034;48.556;9.342;2024-01-07T02:08:51;3.30;99.90
21744;DHT22;11034;48.556;9.342;2024-01-07T02:11:22;3.30;99.90
21744;DHT22;11034;48.556;9.342;2024-01-07T02:13:50;3.30;99.90
21744;DHT22;11034;48.556;9.342;2024-01-07T02:16:18;3.20;99.90
21744;DHT22;11034;48.556;9.342;2024-01-07T02:18:46;3.20;99.90
21744;DHT22;11034;48.556;9.342;2024-01-07T02:21:14;3.20;99.90
21744;DHT22;11034;48.556;9.342;2024-01-07T02:23:43;3.20;99.90
21744;DHT22;11034;48.556;9.342;2024-01-07T02:26:13;3.20;99.90
21744;DHT22;11034;48.556;9.342;2024-01-07T02:28:41;3.20;99.90
21744;DHT22;11034;48.556;9.342;2024-01-07T02:31:09;3.20;99.90
21744;DHT22;11034;48.556;9.342;2024-01-07T02:33:37;3.20;99.90
21744;DHT22;11034;48.556;9.342;2024-01-07T02:36:05;3.20;99.90
21744;DHT22;11034;48.556;9.342;2024-01-07T02:38:33;3.20;99.90
21744;DHT22;11034;48.556;9.342;2024-01-07T02:41:01;3.20;99.90
21744;DHT22;11034;48.556;9.342;2024-01-07T02:43:31;3.20;99.90
21744;DHT22;11034;48.556;9.342;2024-01-07T02:45:59;3.30;99.90
21744;DHT22;11034;48.556;9.342;2024-01-07T02:48:27;3.30;99.90
21744;DHT22;11034;48.556;9.342;2024-01-07T02:50:55;3.20;99.90
21744;DHT22;11034;48.556;9.342;2024-01-07T02:53:23;3.20;99.90
21744;DHT22;11034;48.556;9.342;2024-01-07T02:55:51;3.20;99.90
21744;DHT22;11034;48.556;9.342;2024-01-07T02:58:19;3.30;99.90
21744;DHT22;11034;48.556;9.342;2024-01-07T03:00:49;3.20;99.90
21744;DHT22;11034;48.556;9.342;2024-01-07T03:03:17;3.20;99.90
21744;DHT22;11034;48.556;9.342;2024-01-07T03:05:45;3.20;99.90
21744;DHT22;11034;48.556;9.342;2024-01-07T03:08:13;3.20;99.90
21744;DHT22;11034;48.556;9.342;2024-01-07T03:10:41;3.20;99.90
21744;DHT22;11034;48.556;9.342;2024-01-07T03:13:09;3.20;99.90
21744;DHT22;11034;48.556;9.342;2024-01-07T03:15:37;3.20;99.90
21744;DHT22;11034;48.556;9.342;2024-01-07T03:18:07;3.20;99.90
21744;DHT22;11034;48.556;9.342;2024-01-07T03:20:35;3.20;99.90
21744;DHT22;11034;48.556;9.342;2024-01-07T03:23:03;3.20;99.90
21744;DHT22;11034;48.556;9.342;2024-01-07T03:25:31;3.20;99.90
21744;DHT22;11034;48.556;9.342;2024-01-07T03:27:59;3.20;99.90
21744;DHT22;11034;48.556;9.342;2024-01-07T03:30:27;3.10;99.90
21744;DHT22;11034;48.556;9.342;2024-01-07T03:32:55;3.20;99.90
21744;DHT22;11034;48.556;9.342;2024-01-07T03:35:25;3.20;99.90
21744;DHT22;11034;48.556;9.342;2024-01-07T03:37:53;3.20;99.90
21744;DHT22;11034;48.556;9.342;2024-01-07T03:40:21;3.20;99.90
21744;DHT22;11034;48.556;9.342;2024-01-07T03:42:49;3.20;99.90
21744;DHT22;11034;48.556;9.342;2024-01-07T03:45:17;3.20;99.90
21744;DHT22;11034;48.556;9.342;2024-01-07T03:47:45;3.10;99.90
21744;DHT22;11034;48.556;9.342;2024-01-07T03:50:13;3.10;99.90
21744;DHT22;11034;48.556;9.342;2024-01-07T03:52:43;3.10;99.90
21744;DHT22;11034;48.556;9.342;2024-01-07T03:55:11;3.10;99.90
21744;DHT22;11034;48.556;9.342;2024-01-07T03:57:39;3.20;99.90
21744;DHT22;11034;48.556;9.342;2024-01-07T04:00:08;3.10;99.90
21744;DHT22;11034;48.556;9.342;2024-01-07T04:02:37;3.10;99.90
21744;DHT22;11034;48.556;9.342;2024-01-07T04:05:05;3.20;99.90
21744;DHT22;11034;48.556;9.342;2024-01-07T04:07:34;3.10;99.90
21744;DHT22;11034;48.556;9.342;2024-01-07T04:10:04;3.20;99.90
21744;DHT22;11034;48.556;9.342;2024-01-07T04:12:32;3.10;99.90
21744;DHT22;11034;48.556;9.342;2024-01-07T04:15:00;3.10;99.90
21744;DHT22;11034;48.556;9.342;2024-01-07T04:17:28;3.10;99.90
21744;DHT22;11034;48.556;9.342;2024-01-07T04:19:58;3.10;99.90
21744;DHT22;11034;48.556;9.342;2024-01-07T04:22:26;3.10;99.90
21744;DHT22;11034;48.556;9.342;2024-01-07T04:24:54;3.10;99.90
21744;DHT22;11034;48.556;9.342;2024-01-07T04:27:23;3.00;99.90
21744;DHT22;11034;48.556;9.342;2024-01-07T04:29:51;3.00;99.90
21744;DHT22;11034;48.556;9.342;2024-01-07T04:32:19;3.10;99.90
21744;DHT22;11034;48.556;9.342;2024-01-07T04:34:48;3.10;99.90
21744;DHT22;11034;48.556;9.342;2024-01-07T04:37:16;3.10;99.90
21744;DHT22;11034;48.556;9.342;2024-01-07T04:39:44;3.10;99.90
21744;DHT22;11034;48.556;9.342;2024-01-07T04:42:12;3.10;99.90
21744;DHT22;11034;48.556;9.342;2024-01-07T04:44:41;3.10;99.90
21744;DHT22;11034;48.556;9.342;2024-01-07T04:47:26;3.00;99.90
21744;DHT22;11034;48.556;9.342;2024-01-07T04:49:55;3.00;99.90
21744;DHT22;11034;48.556;9.342;2024-01-07T04:52:24;3.00;99.90
21744;DHT22;11034;48.556;9.342;2024-01-07T04:54:52;3.00;99.90
21744;DHT22;11034;48.556;9.342;2024-01-07T04:57:21;2.90;99.90
21744;DHT22;11034;48.556;9.342;2024-01-07T04:59:51;2.90;99.90
21744;DHT22;11034;48.556;9.342;2024-01-07T05:02:19;2.90;99.90
21744;DHT22;11034;48.556;9.342;2024-01-07T05:04:47;2.80;99.90
21744;DHT22;11034;48.556;9.342;2024-01-07T05:07:15;2.80;99.90
21744;DHT22;11034;48.556;9.342;2024-01-07T05:09:43;2.70;99.90
21744;DHT22;11034;48.556;9.342;2024-01-07T05:12:11;2.60;99.90
21744;DHT22;11034;48.556;9.342;2024-01-07T05:14:40;2.60;99.90
21744;DHT22;11034;48.556;9.342;2024-01-07T05:17:11;2.60;99.90
21744;DHT22;11034;48.556;9.342;2024-01-07T05:19:40;2.60;99.90
21744;DHT22;11034;48.556;9.342;2024-01-07T05:22:08;2.70;99.90
21744;DHT22;11034;48.556;9.342;2024-01-07T05:24:37;2.70;99.90
21744;DHT22;11034;48.556;9.342;2024-01-07T05:27:05;2.60;99.90
21744;DHT22;11034;48.556;9.342;2024-01-07T05:29:34;2.60;99.90
21744;DHT22;11034;48.556;9.342;2024-01-07T05:32:03;2.60;99.90
21744;DHT22;11034;48.556;9.342;2024-01-07T05:34:32;2.60;99.90
21744;DHT22;11034;48.556;9.342;2024-01-07T05:37:00;2.60;99.90
21744;DHT22;11034;48.556;9.342;2024-01-07T05:39:28;2.60;99.90
21744;DHT22;11034;48.556;9.342;2024-01-07T05:41:56;2.60;99.90
21744;DHT22;11034;48.556;9.342;2024-01-07T05:44:24;2.60;99.90
21744;DHT22;11034;48.556;9.342;2024-01-07T05:46:55;2.60;99.90
21744;DHT22;11034;48.556;9.342;2024-01-07T05:49:23;2.60;99.90
21744;DHT22;11034;48.556;9.342;2024-01-07T05:51:53;2.60;99.90
21744;DHT22;11034;48.556;9.342;2024-01-07T05:54:21;2.60;99.90
21744;DHT22;11034;48.556;9.342;2024-01-07T05:56:50;2.60;99.90
21744;DHT22;11034;48.556;9.342;2024-01-07T05:59:17;2.50;99.90
21744;DHT22;11034;48.556;9.342;2024-01-07T06:01:45;2.50;99.90
21744;DHT22;11034;48.556;9.342;2024-01-07T06:04:13;2.60;99.90
21744;DHT22;11034;48.556;9.342;2024-01-07T06:06:42;2.60;99.90
21744;DHT22;11034;48.556;9.342;2024-01-07T06:09:11;2.60;99.90
21744;DHT22;11034;48.556;9.342;2024-01-07T06:11:39;2.50;99.90
21744;DHT22;11034;48.556;9.342;2024-01-07T06:14:07;2.50;99.90
21744;DHT22;11034;48.556;9.342;2024-01-07T06:16:35;2.50;99.90
21744;DHT22;11034;48.556;9.342;2024-01-07T06:19:03;2.60;99.90
21744;DHT22;11034;48.556;9.342;2024-01-07T06:21:31;2.60;99.90
21744;DHT22;11034;48.556;9.342;2024-01-07T06:23:59;2.50;99.90
21744;DHT22;11034;48.556;9.342;2024-01-07T06:26:29;2.60;99.90
21744;DHT22;11034;48.556;9.342;2024-01-07T06:28:57;2.50;99.90
21744;DHT22;11034;48.556;9.342;2024-01-07T06:31:25;2.50;99.90
21744;DHT22;11034;48.556;9.342;2024-01-07T06:33:53;2.60;99.90
21744;DHT22;11034;48.556;9.342;2024-01-07T06:36:23;2.60;99.90
21744;DHT22;11034;48.556;9.342;2024-01-07T06:38:51;2.50;99.90
21744;DHT22;11034;48.556;9.342;2024-01-07T06:41:19;2.50;99.90
21744;DHT22;11034;48.556;9.342;2024-01-07T06:43:49;2.50;99.90
21744;DHT22;11034;48.556;9.342;2024-01-07T06:46:19;2.50;99.90
21744;DHT22;11034;48.556;9.342;2024-01-07T06:48:47;2.40;99.90
21744;DHT22;11034;48.556;9.342;2024-01-07T06:51:17;2.50;99.90
21744;DHT22;11034;48.556;9.342;2024-01-07T06:53:45;2.40;99.90
21744;DHT22;11034;48.556;9.342;2024-01-07T06:56:13;2.40;99.90
21744;DHT22;11034;48.556;9.342;2024-01-07T06:58:43;2.40;99.90
21744;DHT22;11034;48.556;9.342;2024-01-07T07:01:12;2.40;99.90
21744;DHT22;11034;48.556;9.342;2024-01-07T07:03:40;2.40;99.90
21744;DHT22;11034;48.556;9.342;2024-01-07T07:06:09;2.40;99.90
21744;DHT22;11034;48.556;9.342;2024-01-07T07:08:39;2.40;99.90
21744;DHT22;11034;48.556;9.342;2024-01-07T07:11:07;2.40;99.90
21744;DHT22;11034;48.556;9.342;2024-01-07T07:13:35;2.40;99.90
21744;DHT22;11034;48.556;9.342;2024-01-07T07:16:06;2.30;99.90
21744;DHT22;11034;48.556;9.342;2024-01-07T07:18:35;2.30;99.90
21744;DHT22;11034;48.556;9.342;2024-01-07T07:21:04;2.40;99.90
21744;DHT22;11034;48.556;9.342;2024-01-07T07:23:32;2.40;99.90
21744;DHT22;11034;48.556;9.342;2024-01-07T07:26:00;2.40;99.90
21744;DHT22;11034;48.556;9.342;2024-01-07T07:28:28;2.40;99.90
21744;DHT22;11034;48.556;9.342;2024-01-07T07:30:56;2.50;99.90
21744;DHT22;11034;48.556;9.342;2024-01-07T07:33:24;2.50;99.90
21744;DHT22;11034;48.556;9.342;2024-01-07T07:35:54;2.50;99.90
21744;DHT22;11034;48.556;9.342;2024-01-07T07:38:22;2.40;99.90
21744;DHT22;11034;48.556;9.342;2024-01-07T07:40:50;2.40;99.90
21744;DHT22;11034;48.556;9.342;2024-01-07T07:43:20;2.50;99.90
21744;DHT22;11034;48.556;9.342;2024-01-07T07:45:48;2.40;99.90
21744;DHT22;11034;48.556;9.342;2024-01-07T07:48:16;2.40;99.90
21744;DHT22;11034;48.556;9.342;2024-01-07T07:50:44;2.40;99.90
21744;DHT22;11034;48.556;9.342;2024-01-07T07:53:14;2.40;99.90
21744;DHT22;11034;48.556;9.342;2024-01-07T07:55:42;2.40;99.90
21744;DHT22;11034;48.556;9.342;2024-01-07T08:00:38;2.40;99.90
21744;DHT22;11034;48.556;9.342;2024-01-07T08:03:06;2.40;99.90
21744;DHT22;11034;48.556;9.342;2024-01-07T08:05:34;2.40;99.90
21744;DHT22;11034;48.556;9.342;2024-01-07T08:08:03;2.40;99.90
21744;DHT22;11034;48.556;9.342;2024-01-07T08:10:32;2.40;99.90
21744;DHT22;11034;48.556;9.342;2024-01-07T08:13:01;2.50;99.90
21744;DHT22;11034;48.556;9.342;2024-01-07T08:15:30;2.40;99.90
21744;DHT22;11034;48.556;9.342;2024-01-07T08:17:58;2.50;99.90
21744;DHT22;11034;48.556;9.342;2024-01-07T08:20:26;2.50;99.90
21744;DHT22;11034;48.556;9.342;2024-01-07T08:22:54;2.50;99.90
21744;DHT22;11034;48.556;9.342;2024-01-07T08:25:22;2.50;99.90
21744;DHT22;11034;48.556;9.342;2024-01-07T08:27:51;2.40;99.90
21744;DHT22;11034;48.556;9.342;2024-01-07T08:30:20;2.40;99.90
21744;DHT22;11034;48.556;9.342;2024-01-07T08:32:48;2.30;99.90
21744;DHT22;11034;48.556;9.342;2024-01-07T08:35:16;2.30;99.90
21744;DHT22;11034;48.556;9.342;2024-01-07T08:37:46;2.30;99.90
21744;DHT22;11034;48.556;9.342;2024-01-07T08:40:15;2.10;99.90
21744;DHT22;11034;48.556;9.342;2024-01-07T08:42:45;2.00;99.90
21744;DHT22;11034;48.556;9.342;2024-01-07T08:45:15;2.00;99.90
21744;DHT22;11034;48.556;9.342;2024-01-07T08:47:43;2.00;99.90
21744;DHT22;11034;48.556;9.342;2024-01-07T08:50:11;2.00;99.90
21744;DHT22;11034;48.556;9.342;2024-01-07T08:52:40;2.00;99.90
21744;DHT22;11034;48.556;9.342;2024-01-07T08:55:08;2.00;99.90
21744;DHT22;11034;48.556;9.342;2024-01-07T08:57:37;2.00;99.90
21744;DHT22;11034;48.556;9.342;2024-01-07T09:00:06;2.00;99.90
21744;DHT22;11034;48.556;9.342;2024-01-07T09:02:37;2.00;99.90
21744;DHT22;11034;48.556;9.342;2024-01-07T09:05:10;2.00;99.90
21744;DHT22;11034;48.556;9.342;2024-01-07T09:07:39;2.00;99.90
21744;DHT22;11034;48.556;9.342;2024-01-07T09:10:08;1.90;99.90
21744;DHT22;11034;48.556;9.342;2024-01-07T09:12:38;2.00;99.90
21744;DHT22;11034;48.556;9.342;2024-01-07T09:15:07;2.00;99.90
21744;DHT22;11034;48.556;9.342;2024-01-07T09:17:37;1.90;99.90
21744;DHT22;11034;48.556;9.342;2024-01-07T09:20:07;1.90;99.90
21744;DHT22;11034;48.556;9.342;2024-01-07T09:22:36;1.90;99.90
21744;DHT22;11034;48.556;9.342;2024-01-07T09:25:04;2.00;99.90
21744;DHT22;11034;48.556;9.342;2024-01-07T09:27:33;1.90;99.90
21744;DHT22;11034;48.556;9.342;2024-01-07T09:30:02;1.90;99.90
21744;DHT22;11034;48.556;9.342;2024-01-07T09:32:30;1.80;99.90
21744;DHT22;11034;48.556;9.342;2024-01-07T09:35:05;1.80;99.90
21744;DHT22;11034;48.556;9.342;2024-01-07T09:37:33;1.80;99.90
21744;DHT22;11034;48.556;9.342;2024-01-07T09:40:02;1.80;99.90
21744;DHT22;11034;48.556;9.342;2024-01-07T09:42:32;1.80;99.90
21744;DHT22;11034;48.556;9.342;2024-01-07T09:45:02;1.80;99.90
21744;DHT22;11034;48.556;9.342;2024-01-07T09:47:31;1.80;99.90
21744;DHT22;11034;48.556;9.342;2024-01-07T09:49:59;1.70;99.90
21744;DHT22;11034;48.556;9.342;2024-01-07T09:52:29;1.70;99.90
21744;DHT22;11034;48.556;9.342;2024-01-07T09:54:58;1.60;99.90
21744;DHT22;11034;48.556;9.342;2024-01-07T09:57:27;1.60;99.90
21744;DHT22;11034;48.556;9.342;2024-01-07T09:59:55;1.60;99.90
21744;DHT22;11034;48.556;9.342;2024-01-07T10:02:23;1.60;99.90
21744;DHT22;11034;48.556;9.342;2024-01-07T10:04:52;1.70;99.90
21744;DHT22;11034;48.556;9.342;2024-01-07T10:07:20;1.60;99.90
21744;DHT22;11034;48.556;9.342;2024-01-07T10:09:49;1.60;99.90
21744;DHT22;11034;48.556;9.342;2024-01-07T10:12:17;1.50;99.90
21744;DHT22;11034;48.556;9.342;2024-01-07T10:14:45;1.50;99.90
21744;DHT22;11034;48.556;9.342;2024-01-07T10:17:17;1.50;99.90
21744;DHT22;11034;48.556;9.342;2024-01-07T10:19:45;1.50;99.90
21744;DHT22;11034;48.556;9.342;2024-01-07T10:22:14;1.60;99.90
21744;DHT22;11034;48.556;9.342;2024-01-07T10:24:43;1.60;99.90
21744;DHT22;11034;48.556;9.342;2024-01-07T10:27:12;1.50;99.90
21744;DHT22;11034;48.556;9.342;2024-01-07T10:29:40;1.50;99.90
21744;DHT22;11034;48.556;9.342;2024-01-07T10:32:09;1.50;99.90
21744;DHT22;11034;48.556;9.342;2024-01-07T10:34:37;1.60;99.90
21744;DHT22;11034;48.556;9.342;2024-01-07T10:37:05;1.60;99.90
21744;DHT22;11034;48.556;9.342;2024-01-07T10:39:34;1.50;99.90
21744;DHT22;11034;48.556;9.342;2024-01-07T10:42:02;1.50;99.90
21744;DHT22;11034;48.556;9.342;2024-01-07T10:44:32;1.40;99.90
21744;DHT22;11034;48.556;9.342;2024-01-07T10:47:06;1.40;99.90
21744;DHT22;11034;48.556;9.342;2024-01-07T10:49:35;1.40;99.90
21744;DHT22;11034;48.556;9.342;2024-01-07T10:52:06;1.30;99.90
21744;DHT22;11034;48.556;9.342;2024-01-07T10:54:35;1.30;99.90
21744;DHT22;11034;48.556;9.342;2024-01-07T10:57:13;1.20;99.90
21744;DHT22;11034;48.556;9.342;2024-01-07T10:59:46;1.30;99.90
21744;DHT22;11034;48.556;9.342;2024-01-07T11:02:15;1.20;99.90
21744;DHT22;11034;48.556;9.342;2024-01-07T11:04:50;1.10;99.90
21744;DHT22;11034;48.556;9.342;2024-01-07T11:07:26;1.20;99.90
21744;DHT22;11034;48.556;9.342;2024-01-07T11:10:05;1.10;99.90
21744;DHT22;11034;48.556;9.342;2024-01-07T11:12:36;1.20;99.90
21744;DHT22;11034;48.556;9.342;2024-01-07T11:15:07;1.00;99.90
21744;DHT22;11034;48.556;9.342;2024-01-07T11:17:41;1.00;99.90
21744;DHT22;11034;48.556;9.342;2024-01-07T11:20:17;1.10;99.90
21744;DHT22;11034;48.556;9.342;2024-01-07T11:22:47;1.00;99.90
21744;DHT22;11034;48.556;9.342;2024-01-07T11:25:31;1.00;99.90
21744;DHT22;11034;48.556;9.342;2024-01-07T11:28:01;1.00;99.90
21744;DHT22;11034;48.556;9.342;2024-01-07T11:30:38;1.00;99.90
21744;DHT22;11034;48.556;9.342;2024-01-07T11:33:07;1.10;99.90
21744;DHT22;11034;48.556;9.342;2024-01-07T11:35:55;1.10;99.90
21744;DHT22;11034;48.556;9.342;2024-01-07T11:38:24;1.10;99.90
21744;DHT22;11034;48.556;9.342;2024-01-07T11:40:52;1.10;99.90
21744;DHT22;11034;48.556;9.342;2024-01-07T11:43:20;1.10;99.90
21744;DHT22;11034;48.556;9.342;2024-01-07T11:45:51;1.20;99.90
21744;DHT22;11034;48.556;9.342;2024-01-07T11:48:20;1.20;99.90
21744;DHT22;11034;48.556;9.342;2024-01-07T11:50:48;1.20;99.90
21744;DHT22;11034;48.556;9.342;2024-01-07T11:53:22;1.20;99.90
21744;DHT22;11034;48.556;9.342;2024-01-07T11:55:50;1.20;99.90
21744;DHT22;11034;48.556;9.342;2024-01-07T11:58:19;1.20;99.90
21744;DHT22;11034;48.556;9.342;2024-01-07T12:00:47;1.20;99.90
21744;DHT22;11034;48.556;9.342;2024-01-07T12:03:18;1.10;99.90
21744;DHT22;11034;48.556;9.342;2024-01-07T12:05:46;1.10;99.90
21744;DHT22;11034;48.556;9.342;2024-01-07T12:08:15;1.10;99.90
21744;DHT22;11034;48.556;9.342;2024-01-07T12:10:44;1.10;99.90
21744;DHT22;11034;48.556;9.342;2024-01-07T12:13:13;1.10;99.90
21744;DHT22;11034;48.556;9.342;2024-01-07T12:15:42;1.00;99.90
21744;DHT22;11034;48.556;9.342;2024-01-07T12:18:10;1.00;99.90
21744;DHT22;11034;48.556;9.342;2024-01-07T12:20:41;1.00;99.90
21744;DHT22;11034;48.556;9.342;2024-01-07T12:23:09;1.00;99.90
21744;DHT22;11034;48.556;9.342;2024-01-07T12:25:37;1.00;99.90
21744;DHT22;11034;48.556;9.342;2024-01-07T12:28:06;1.00;99.90
21744;DHT22;11034;48.556;9.342;2024-01-07T12:30:36;1.10;99.90
21744;DHT22;11034;48.556;9.342;2024-01-07T12:33:05;1.10;99.90
21744;DHT22;11034;48.556;9.342;2024-01-07T12:35:34;1.10;99.90
21744;DHT22;11034;48.556;9.342;2024-01-07T12:38:05;1.10;99.90
21744;DHT22;11034;48.556;9.342;2024-01-07T12:40:33;1.20;99.90
21744;DHT22;11034;48.556;9.342;2024-01-07T12:43:02;1.10;99.90
21744;DHT22;11034;48.556;9.342;2024-01-07T12:45:30;1.10;99.90
21744;DHT22;11034;48.556;9.342;2024-01-07T12:47:59;1.00;99.90
21744;DHT22;11034;48.556;9.342;2024-01-07T12:50:29;1.10;99.90
21744;DHT22;11034;48.556;9.342;2024-01-07T12:52:58;1.00;99.90
21744;DHT22;11034;48.556;9.342;2024-01-07T12:55:28;0.90;99.90
21744;DHT22;11034;48.556;9.342;2024-01-07T12:57:56;0.80;99.90
21744;DHT22;11034;48.556;9.342;2024-01-07T13:00:25;0.70;99.90
21744;DHT22;11034;48.556;9.342;2024-01-07T13:02:55;0.80;99.90
21744;DHT22;11034;48.556;9.342;2024-01-07T13:05:27;0.90;99.90
21744;DHT22;11034;48.556;9.342;2024-01-07T13:07:56;0.80;99.90
21744;DHT22;11034;48.556;9.342;2024-01-07T13:10:24;0.80;99.90
21744;DHT22;11034;48.556;9.342;2024-01-07T13:12:53;0.70;99.90
21744;DHT22;11034;48.556;9.342;2024-01-07T13:15:33;0.80;99.90
21744;DHT22;11034;48.556;9.342;2024-01-07T13:18:02;0.80;99.90
21744;DHT22;11034;48.556;9.342;2024-01-07T13:20:30;0.80;99.90
21744;DHT22;11034;48.556;9.342;2024-01-07T13:22:58;0.70;99.90
21744;DHT22;11034;48.556;9.342;2024-01-07T13:25:27;0.60;99.90
21744;DHT22;11034;48.556;9.342;2024-01-07T13:27:57;0.50;99.90
21744;DHT22;11034;48.556;9.342;2024-01-07T13:30:26;0.40;99.90
21744;DHT22;11034;48.556;9.342;2024-01-07T13:32:54;0.40;99.90
21744;DHT22;11034;48.556;9.342;2024-01-07T13:35:24;0.30;99.90
21744;DHT22;11034;48.556;9.342;2024-01-07T13:37:53;0.30;99.90
21744;DHT22;11034;48.556;9.342;2024-01-07T13:40:21;0.30;99.90
21744;DHT22;11034;48.556;9.342;2024-01-07T13:42:49;0.30;99.90
21744;DHT22;11034;48.556;9.342;2024-01-07T13:45:19;0.30;99.90
21744;DHT22;11034;48.556;9.342;2024-01-07T13:47:49;0.20;99.90
21744;DHT22;11034;48.556;9.342;2024-01-07T13:50:18;0.20;99.90
21744;DHT22;11034;48.556;9.342;2024-01-07T13:52:46;0.10;99.90
21744;DHT22;11034;48.556;9.342;2024-01-07T13:55:14;0.20;99.90
21744;DHT22;11034;48.556;9.342;2024-01-07T13:57:43;0.10;99.90
21744;DHT22;11034;48.556;9.342;2024-01-07T14:00:11;0.10;99.90
21744;DHT22;11034;48.556;9.342;2024-01-07T14:02:46;0.00;99.90
21744;DHT22;11034;48.556;9.342;2024-01-07T14:05:16;0.00;99.90
21744;DHT22;11034;48.556;9.342;2024-01-07T14:07:46;0.10;99.90
21744;DHT22;11034;48.556;9.342;2024-01-07T14:10:15;0.00;99.90
21744;DHT22;11034;48.556;9.342;2024-01-07T14:12:46;-0.10;99.90
21744;DHT22;11034;48.556;9.342;2024-01-07T14:15:14;-0.20;99.90
21744;DHT22;11034;48.556;9.342;2024-01-07T14:17:45;-0.20;99.90
21744;DHT22;11034;48.556;9.342;2024-01-07T14:20:13;-0.20;99.90
21744;DHT22;11034;48.556;9.342;2024-01-07T14:22:42;-0.30;99.90
21744;DHT22;11034;48.556;9.342;2024-01-07T14:25:10;-0.30;99.90
21744;DHT22;11034;48.556;9.342;2024-01-07T14:27:38;-0.30;99.90
21744;DHT22;11034;48.556;9.342;2024-01-07T14:30:07;-0.30;99.90
21744;DHT22;11034;48.556;9.342;2024-01-07T14:32:35;-0.40;99.90
21744;DHT22;11034;48.556;9.342;2024-01-07T14:35:06;-0.30;99.90
21744;DHT22;11034;48.556;9.342;2024-01-07T14:37:35;-0.30;99.90
21744;DHT22;11034;48.556;9.342;2024-01-07T14:40:03;-0.40;99.90
21744;DHT22;11034;48.556;9.342;2024-01-07T14:42:32;-0.50;99.90
21744;DHT22;11034;48.556;9.342;2024-01-07T14:45:01;-0.60;99.90
21744;DHT22;11034;48.556;9.342;2024-01-07T14:47:31;-0.50;99.90
21744;DHT22;11034;48.556;9.342;2024-01-07T14:49:59;-0.50;99.90
21744;DHT22;11034;48.556;9.342;2024-01-07T14:52:31;-0.50;99.90
21744;DHT22;11034;48.556;9.342;2024-01-07T14:54:59;-0.40;99.90
21744;DHT22;11034;48.556;9.342;2024-01-07T14:57:28;-0.50;99.90
21744;DHT22;11034;48.556;9.342;2024-01-07T14:59:56;-0.50;99.90
21744;DHT22;11034;48.556;9.342;2024-01-07T15:02:24;-0.50;99.90
21744;DHT22;11034;48.556;9.342;2024-01-07T15:04:52;-0.60;99.90
21744;DHT22;11034;48.556;9.342;2024-01-07T15:07:22;-0.50;99.90
21744;DHT22;11034;48.556;9.342;2024-01-07T15:09:51;-0.50;99.90
21744;DHT22;11034;48.556;9.342;2024-01-07T15:12:19;-0.50;99.90
21744;DHT22;11034;48.556;9.342;2024-01-07T15:14:49;-0.50;99.90
21744;DHT22;11034;48.556;9.342;2024-01-07T15:17:18;-0.50;99.90
21744;DHT22;11034;48.556;9.342;2024-01-07T15:19:46;-0.60;99.90
21744;DHT22;11034;48.556;9.342;2024-01-07T15:22:14;-0.50;99.90
21744;DHT22;11034;48.556;9.342;2024-01-07T15:24:42;-0.60;99.90
21744;DHT22;11034;48.556;9.342;2024-01-07T15:27:12;-0.60;99.90
21744;DHT22;11034;48.556;9.342;2024-01-07T15:29:40;-0.60;99.90
21744;DHT22;11034;48.556;9.342;2024-01-07T15:32:08;-0.60;99.90
21744;DHT22;11034;48.556;9.342;2024-01-07T15:34:36;-0.70;99.90
21744;DHT22;11034;48.556;9.342;2024-01-07T15:37:04;-0.70;99.90
21744;DHT22;11034;48.556;9.342;2024-01-07T15:39:33;-0.70;99.90
21744;DHT22;11034;48.556;9.342;2024-01-07T15:42:01;-0.70;99.90
21744;DHT22;11034;48.556;9.342;2024-01-07T15:44:30;-0.70;99.90
21744;DHT22;11034;48.556;9.342;2024-01-07T15:46:58;-0.70;99.90
21744;DHT22;11034;48.556;9.342;2024-01-07T15:49:26;-0.80;99.90
21744;DHT22;11034;48.556;9.342;2024-01-07T15:51:55;-0.90;99.90
21744;DHT22;11034;48.556;9.342;2024-01-07T15:54:23;-0.90;99.90
21744;DHT22;11034;48.556;9.342;2024-01-07T15:56:51;-0.90;99.90
21744;DHT22;11034;48.556;9.342;2024-01-07T15:59:19;-1.10;99.90